Time;durP1;ratioP1;P1;durP2;ratioP2;P2;SDS_P1;SDS_P2;PMS_P1;PMS_P2;Temp;Humidity;BMP_temperature;BMP_pressure;BME280_temperature;BME280_humidity;BME280_pressure;Samples;Min_cycle;Max_cycle;Signal;HPM_P1;HPM_P2
2022/02/09 14:54:55;;;;;;;7.97;4.38;;;;;;;7.77;69.26;100886.97;4963689;28;105857;-75
2022/02/09 14:57:31;;;;;;;5.57;2.63;;;;;;;7.81;69.45;100897.34;4999092;28;105739;-72
2022/02/09 15:07:48;;;;;;;8.50;4.47;;;;;;;7.81;69.22;100902.66;5004884;28;106197;-77
2022/02/09 15:10:28;;;;;;;6.30;3.80;;;;;;;7.82;69.07;100896.34;5005492;28;106002;-72
2022/02/09 15:13:04;;;;;;;7.72;4.15;;;;;;;7.81;69.11;100892.88;5006030;28;105832;-80
2022/02/09 15:15:59;;;;;;;7.57;4.38;;;;;;;7.80;69.54;100891.19;5004795;28;106246;-75
2022/02/09 15:23:45;;;;;;;8.52;4.80;;;;;;;7.71;68.87;100895.50;5006176;28;106121;-76
2022/02/09 15:26:10;;;;;;;9.25;5.15;;;;;;;7.64;69.56;100881.09;5005124;28;106155;-74
2022/02/09 15:28:37;;;;;;;8.43;5.35;;;;;;;7.63;69.60;100890.84;5004659;28;106083;-76
2022/02/09 15:31:12;;;;;;;9.52;5.53;;;;;;;7.61;69.52;100886.66;5004570;28;106065;-76
2022/02/09 15:33:48;;;;;;;10.77;6.07;;;;;;;7.59;70.01;100889.44;5005294;28;106064;-75
2022/02/09 15:36:17;;;;;;;11.68;5.95;;;;;;;7.57;69.40;100887.88;5004943;28;106329;-76
2022/02/09 15:38:46;;;;;;;8.07;5.45;;;;;;;7.53;69.51;100883.81;5003045;28;106437;-76
2022/02/09 15:41:29;;;;;;;8.70;4.90;;;;;;;7.52;70.28;100879.47;5003917;28;106355;-75
2022/02/09 15:56:16;;;;;;;11.55;5.70;;;;;;;7.49;69.49;100890.38;5002879;28;106578;-75
2022/02/09 15:58:17;;;;;;;11.50;4.82;;;;;;;7.32;69.45;100881.22;5005110;28;105795;-75
2022/02/09 16:07:41;;;;;;;8.70;5.15;;;;;;;7.25;69.29;100889.69;4993159;28;105943;-74
2022/02/09 16:17:11;;;;;;;8.98;4.30;;;;;;;7.15;70.08;100898.56;4991935;28;105996;-72
2022/02/09 16:22:11;;;;;;;10.60;5.35;;;;;;;7.13;69.51;100889.91;4989876;28;105906;-74
2022/02/09 16:46:20;;;;;;;10.15;5.70;;;;;;;7.07;69.20;100900.06;4990283;28;106645;-77
2022/02/09 16:48:58;;;;;;;9.98;6.00;;;;;;;7.07;69.30;100901.88;4989572;28;106279;-72
2022/02/09 16:51:25;;;;;;;9.32;5.88;;;;;;;7.06;69.13;100898.38;4990140;28;106038;-76
2022/02/09 16:54:04;;;;;;;9.93;5.47;;;;;;;7.06;69.32;100906.31;4990280;28;105996;-77
2022/02/09 17:18:44;;;;;;;12.90;6.47;;;;;;;6.99;68.95;100899.88;4987294;28;106540;-78
2022/02/09 17:21:10;;;;;;;11.07;6.63;;;;;;;6.95;69.63;100909.03;4969296;28;105991;-76
2022/02/09 17:23:36;;;;;;;11.65;7.28;;;;;;;6.92;69.24;100904.00;4968675;28;106109;-75
2022/02/09 17:26:02;;;;;;;11.10;6.85;;;;;;;6.89;69.18;100904.25;4968176;28;107358;-77
2022/02/09 17:28:28;;;;;;;10.90;6.90;;;;;;;6.87;69.55;100906.19;4968480;28;105912;-76
2022/02/09 17:36:11;;;;;;;11.88;7.45;;;;;;;6.84;69.10;100909.94;4968272;28;106273;-73
2022/02/09 17:57:50;;;;;;;12.70;6.60;;;;;;;6.81;69.28;100902.25;4965071;28;107187;-77
2022/02/09 18:00:16;;;;;;;11.98;6.93;;;;;;;6.82;69.32;100896.00;4966445;28;106613;-74
2022/02/09 18:02:47;;;;;;;10.07;7.07;;;;;;;6.81;69.29;100896.09;4967636;28;106080;-81
2022/02/09 18:05:19;;;;;;;12.90;7.50;;;;;;;6.81;69.21;100891.66;4968437;28;106323;-78
2022/02/09 18:07:49;;;;;;;11.85;7.70;;;;;;;6.82;69.32;100895.13;4969324;28;106053;-78
2022/02/09 18:10:22;;;;;;;10.98;7.03;;;;;;;6.83;69.59;100897.66;4968415;28;105977;-77
2022/02/09 19:01:58;;;;;;;12.95;7.60;;;;;;;6.78;68.96;100902.53;4971323;28;105992;-75
2022/02/09 19:04:02;;;;;;;11.23;7.35;;;;;;;6.80;68.55;100905.03;4984304;28;106280;-76
2022/02/09 19:06:45;;;;;;;15.10;8.23;;;;;;;6.77;68.83;100901.66;4988356;28;105950;-81
2022/02/09 19:15:35;;;;;;;11.98;7.20;;;;;;;6.82;68.79;100900.44;4988265;28;105971;-79
2022/02/09 19:30:45;;;;;;;11.23;6.38;;;;;;;6.81;68.28;100890.81;4988200;28;105889;-74
2022/02/09 19:49:18;;;;;;;14.13;8.10;;;;;;;6.81;68.40;100873.13;4988045;28;105975;-77
2022/02/09 19:52:02;;;;;;;14.70;7.43;;;;;;;6.82;68.35;100872.16;4988129;28;106425;-76
2022/02/09 19:54:43;;;;;;;11.45;7.18;;;;;;;6.83;68.47;100873.00;4989104;28;105902;-73
2022/02/09 19:57:10;;;;;;;11.48;6.85;;;;;;;6.82;68.11;100876.59;4990247;28;105773;-75
2022/02/09 19:59:38;;;;;;;11.35;7.40;;;;;;;6.83;68.17;100881.75;4991072;28;106418;-77
2022/02/09 20:02:06;;;;;;;14.45;7.25;;;;;;;6.85;67.96;100884.28;4990061;28;105928;-77
2022/02/09 20:04:32;;;;;;;12.27;6.90;;;;;;;6.86;67.83;100891.25;4989900;28;106123;-76
2022/02/09 20:06:57;;;;;;;13.30;7.18;;;;;;;6.86;68.25;100883.31;4989791;28;106061;-75
2022/02/09 20:09:26;;;;;;;12.20;8.30;;;;;;;6.85;68.07;100882.50;4991002;28;106027;-76
2022/02/09 20:11:51;;;;;;;15.70;8.05;;;;;;;6.85;68.22;100881.63;4989747;28;106238;-79
2022/02/09 20:14:18;;;;;;;12.98;6.90;;;;;;;6.88;67.96;100887.53;4992818;28;106549;-77
2022/02/09 20:16:44;;;;;;;11.65;6.03;;;;;;;6.88;67.82;100881.41;4999599;28;107286;-78
2022/02/09 20:19:09;;;;;;;14.20;8.35;;;;;;;6.87;67.67;100892.94;5011003;28;105878;-76
2022/02/09 20:21:35;;;;;;;17.25;7.88;;;;;;;6.87;67.93;100880.53;5010185;28;106171;-81
2022/02/09 20:24:02;;;;;;;12.05;7.13;;;;;;;6.87;67.96;100882.34;5009789;28;106694;-79
2022/02/09 20:26:28;;;;;;;15.85;7.78;;;;;;;6.87;68.29;100882.34;5010022;28;106295;-77
2022/02/09 20:28:59;;;;;;;13.95;7.20;;;;;;;6.87;68.01;100890.31;5009729;28;106053;-81
2022/02/09 20:31:30;;;;;;;14.70;7.95;;;;;;;6.87;67.89;100892.94;5010211;28;105859;-78
2022/02/09 20:34:01;;;;;;;10.73;7.43;;;;;;;6.91;68.08;100891.72;5009846;28;106767;-80
2022/02/09 20:36:28;;;;;;;15.10;7.57;;;;;;;6.93;67.82;100889.81;5009323;28;105992;-78
2022/02/09 20:38:57;;;;;;;11.10;7.03;;;;;;;6.95;68.29;100887.84;5011292;28;106637;-81
2022/02/09 20:41:22;;;;;;;11.98;7.45;;;;;;;6.97;68.12;100891.22;5002988;28;105858;-80
2022/02/09 20:46:32;;;;;;;12.95;7.55;;;;;;;6.94;68.10;100887.03;4984786;28;106121;-79
2022/02/09 20:48:58;;;;;;;12.02;6.93;;;;;;;6.93;67.50;100885.34;4989428;28;106312;-78
2022/02/09 20:51:23;;;;;;;10.52;7.15;;;;;;;6.95;67.87;100883.38;4989760;28;105867;-78
2022/02/09 20:53:48;;;;;;;9.95;5.60;;;;;;;6.97;67.30;100885.94;4989412;28;106530;-78
2022/02/09 20:56:14;;;;;;;13.90;6.30;;;;;;;7.00;67.30;100884.78;4989816;28;106139;-77
2022/02/09 20:58:42;;;;;;;12.25;7.35;;;;;;;6.99;67.24;100886.63;4990295;28;106135;-76
2022/02/09 21:01:13;;;;;;;12.73;6.97;;;;;;;7.00;67.53;100879.50;4990849;28;106162;-79
2022/02/09 21:03:47;;;;;;;13.88;7.40;;;;;;;6.99;67.35;100878.66;4989882;28;106227;-76
2022/02/09 21:11:49;;;;;;;10.80;6.45;;;;;;;6.98;67.33;100879.63;4989993;28;106465;-75
2022/02/09 21:17:07;;;;;;;11.68;6.90;;;;;;;6.94;67.55;100873.78;4989921;28;106064;-80
2022/02/09 21:22:39;;;;;;;11.45;7.15;;;;;;;6.96;67.79;100878.94;4990160;28;106223;-79
2022/02/09 21:49:54;;;;;;;11.77;6.78;;;;;;;7.00;67.46;100888.31;4989233;28;106143;-79
2022/02/09 21:52:41;;;;;;;11.45;7.40;;;;;;;6.99;67.62;100885.78;4989620;28;106182;-81
2022/02/09 21:54:56;;;;;;;15.13;7.18;;;;;;;6.98;67.36;100882.28;4989376;28;106199;-80
2022/02/09 22:16:47;;;;;;;14.63;7.75;;;;;;;7.10;67.19;100872.47;4989030;28;105825;-78
